createdAt,value
2018-05-25T00:01:27.310Z,14.00
2018-05-25T00:06:28.650Z,13.90
2018-05-25T00:11:30.727Z,13.70
2018-05-25T00:16:32.106Z,13.70
2018-05-25T00:21:33.426Z,13.60
2018-05-25T00:26:34.754Z,13.60
2018-05-25T00:31:36.091Z,13.50
2018-05-25T00:36:38.089Z,13.50
2018-05-25T00:41:39.436Z,13.50
2018-05-25T00:46:40.773Z,13.70
2018-05-25T00:51:42.866Z,14.00
2018-05-25T00:56:44.928Z,14.20
2018-05-25T01:01:47.131Z,14.30
2018-05-25T01:06:48.434Z,14.20
2018-05-25T01:11:49.693Z,14.40
2018-05-25T01:16:50.954Z,14.60
2018-05-25T01:21:52.176Z,14.70
2018-05-25T01:26:53.564Z,14.80
2018-05-25T01:31:54.890Z,14.90
2018-05-25T01:36:56.959Z,15.10
2018-05-25T01:41:59.892Z,15.20
2018-05-25T01:47:01.113Z,15.20
2018-05-25T01:52:02.443Z,15.30
2018-05-25T01:57:03.812Z,15.40
2018-05-25T02:02:05.908Z,15.30
2018-05-25T02:07:07.238Z,15.20
2018-05-25T02:12:08.561Z,15.20
2018-05-25T02:17:10.728Z,15.10
2018-05-25T02:22:12.006Z,15.10
2018-05-25T02:27:13.355Z,15.00
2018-05-25T02:32:15.419Z,15.20
2018-05-25T02:37:16.684Z,15.20
2018-05-25T02:42:18.045Z,15.10
2018-05-25T02:47:19.343Z,15.10
2018-05-25T02:52:21.403Z,15.20
2018-05-25T02:57:22.872Z,15.10
2018-05-25T03:02:24.929Z,15.20
2018-05-25T03:07:26.178Z,15.20
2018-05-25T03:12:28.287Z,15.20
2018-05-25T03:17:29.601Z,15.20
2018-05-25T03:22:30.893Z,15.20
2018-05-25T03:27:32.281Z,15.10
2018-05-25T03:32:33.790Z,14.80
2018-05-25T03:37:35.219Z,14.20
2018-05-25T03:42:37.277Z,14.70
2018-05-25T03:47:39.406Z,14.70
2018-05-25T03:52:40.750Z,14.70
2018-05-25T03:57:42.782Z,14.80
2018-05-25T04:02:44.075Z,14.80
2018-05-25T04:07:46.984Z,14.90
2018-05-25T04:12:48.306Z,14.90
2018-05-25T04:17:49.557Z,15.00
2018-05-25T04:22:50.859Z,15.50
2018-05-25T04:27:52.847Z,15.40
2018-05-25T04:32:55.019Z,15.40
2018-05-25T04:37:56.372Z,15.40
2018-05-25T04:42:57.787Z,15.40
2018-05-25T04:48:00.085Z,15.40
2018-05-25T04:53:01.351Z,15.60
2018-05-25T04:58:02.805Z,15.70
2018-05-25T05:03:04.924Z,15.90
2018-05-25T05:08:06.284Z,15.80
2018-05-25T05:13:07.515Z,15.90
2018-05-25T05:18:08.839Z,16.10
2018-05-25T05:23:10.927Z,15.40
2018-05-25T05:28:12.217Z,15.40
2018-05-25T05:33:13.535Z,15.40
2018-05-25T05:38:14.923Z,15.30
2018-05-25T05:43:16.234Z,15.50
2018-05-25T05:48:17.584Z,15.60
2018-05-25T05:53:18.825Z,16.00
2018-05-25T05:58:20.086Z,16.30
2018-05-25T06:03:21.375Z,16.60
2018-05-25T06:08:22.749Z,17.00
2018-05-25T06:13:24.077Z,17.40
2018-05-25T06:18:25.361Z,17.60
2018-05-25T06:23:26.672Z,18.20
2018-05-25T06:28:28.785Z,19.10
2018-05-25T06:33:31.082Z,19.10
2018-05-25T06:38:32.363Z,19.40
2018-05-25T06:43:33.694Z,19.50
2018-05-25T06:48:35.030Z,19.50
2018-05-25T06:53:36.342Z,19.40
2018-05-25T06:58:37.570Z,19.40
2018-05-25T07:03:38.905Z,19.40
2018-05-25T07:08:41.025Z,19.70
2018-05-25T07:13:42.336Z,19.70
2018-05-25T07:18:43.690Z,20.30
2018-05-25T07:23:45.058Z,20.20
2018-05-25T07:28:46.414Z,19.60
2018-05-25T07:33:47.706Z,18.80
2018-05-25T07:38:49.014Z,18.40
2018-05-25T07:43:50.343Z,18.40
2018-05-25T07:48:51.705Z,18.50
2018-05-25T07:53:52.991Z,18.30
2018-05-25T07:58:55.017Z,19.70
2018-05-25T08:03:57.148Z,20.60
2018-05-25T08:08:58.442Z,20.50
2018-05-25T08:13:59.728Z,20.90
2018-05-25T08:19:01.003Z,20.90
2018-05-25T08:24:03.028Z,21.60
2018-05-25T08:29:04.432Z,21.60
2018-05-25T08:34:06.382Z,21.40
2018-05-25T08:39:07.745Z,21.40
2018-05-25T08:44:09.172Z,21.30
2018-05-25T08:49:10.475Z,21.40
2018-05-25T08:54:11.805Z,21.80
2018-05-25T08:59:13.083Z,22.40
2018-05-25T09:04:14.532Z,23.00
2018-05-25T09:09:16.555Z,24.50
2018-05-25T09:14:18.541Z,24.60
2018-05-25T09:19:20.632Z,24.20
2018-05-25T09:24:22.934Z,24.20
2018-05-25T09:29:24.320Z,24.00
2018-05-25T09:34:25.623Z,24.40
2018-05-25T09:39:27.052Z,24.60
2018-05-25T09:44:28.404Z,24.40
2018-05-25T09:49:29.671Z,24.00
2018-05-25T09:54:30.969Z,24.20
2018-05-25T09:59:32.539Z,24.80
2018-05-25T10:04:33.943Z,24.90
2018-05-25T10:09:36.297Z,24.30
2018-05-25T10:14:37.678Z,24.60
2018-05-25T10:19:39.771Z,24.60
2018-05-25T10:24:41.155Z,24.60
2018-05-25T10:29:42.447Z,23.70
2018-05-25T10:34:43.758Z,23.40
2018-05-25T10:39:45.131Z,24.10
2018-05-25T10:44:47.597Z,24.00
2018-05-25T10:49:49.791Z,23.90
2018-05-25T10:54:51.153Z,23.90
2018-05-25T10:59:52.463Z,24.30
2018-05-25T11:04:53.878Z,25.40
2018-05-25T11:09:55.241Z,25.00
2018-05-25T11:14:57.310Z,25.60
2018-05-25T11:19:58.636Z,25.60
2018-05-25T11:24:59.887Z,24.80
2018-05-25T11:30:01.352Z,24.50
2018-05-25T11:35:02.703Z,24.80
2018-05-25T11:40:04.268Z,24.10
2018-05-25T11:45:05.777Z,24.30
2018-05-25T11:50:07.639Z,24.90
2018-05-25T11:55:09.140Z,25.00
2018-05-25T12:00:11.268Z,25.30
2018-05-25T12:05:12.685Z,25.30
2018-05-25T12:10:14.131Z,26.30
2018-05-25T12:15:16.364Z,27.60
2018-05-25T12:20:17.651Z,28.00
2018-05-25T12:25:19.089Z,28.20
2018-05-25T12:30:20.418Z,28.60
2018-05-25T12:35:22.513Z,29.10
2018-05-25T12:40:24.699Z,29.70
2018-05-25T12:45:26.135Z,29.60
2018-05-25T12:50:27.797Z,28.70
2018-05-25T12:55:29.331Z,26.40
2018-05-25T13:00:30.755Z,27.30
2018-05-25T13:05:32.231Z,27.60
2018-05-25T13:10:33.640Z,27.10
2018-05-25T13:15:35.261Z,27.10
2018-05-25T13:20:37.699Z,27.70
2018-05-25T13:25:40.031Z,27.60
2018-05-25T13:30:43.582Z,27.60
2018-05-25T13:35:45.139Z,27.50
2018-05-25T13:40:46.615Z,27.20
2018-05-25T13:45:47.966Z,27.90
2018-05-25T13:50:49.396Z,27.80
2018-05-25T13:55:51.556Z,28.20
2018-05-25T14:00:53.036Z,28.10
2018-05-25T14:05:55.069Z,28.20
2018-05-25T14:10:56.478Z,28.20
2018-05-25T14:15:58.509Z,26.10
2018-05-25T14:20:59.800Z,26.00
2018-05-25T14:26:01.121Z,25.70
2018-05-25T14:31:03.236Z,25.90
2018-05-25T14:36:04.883Z,26.00
2018-05-25T14:41:06.165Z,26.30
2018-05-25T14:46:07.562Z,26.60
2018-05-25T14:51:09.800Z,27.00
2018-05-25T14:56:11.234Z,26.90
2018-05-25T15:01:12.804Z,29.60
2018-05-25T15:06:14.225Z,32.50
2018-05-25T15:11:15.605Z,33.70
2018-05-25T15:16:17.149Z,32.80
2018-05-25T15:21:18.678Z,31.30
2018-05-25T15:26:21.106Z,30.80
2018-05-25T15:31:22.557Z,30.50
2018-05-25T15:36:23.927Z,32.30
2018-05-25T15:41:25.382Z,33.20
2018-05-25T15:46:27.837Z,31.80
2018-05-25T15:51:29.307Z,30.90
2018-05-25T15:56:30.655Z,30.40
2018-05-25T16:01:32.032Z,30.90
2018-05-25T16:06:33.424Z,31.20
2018-05-25T16:11:34.827Z,30.30
2018-05-25T16:16:36.163Z,30.10
2018-05-25T16:21:38.257Z,29.50
2018-05-25T16:26:39.656Z,28.80
2018-05-25T16:31:41.160Z,28.60
2018-05-25T16:36:42.619Z,28.10
2018-05-25T16:41:43.949Z,28.30
2018-05-25T16:46:46.093Z,31.10
2018-05-25T16:51:47.377Z,31.10
2018-05-25T16:56:48.784Z,32.30
2018-05-25T17:01:50.193Z,34.20
2018-05-25T17:06:51.626Z,34.40
2018-05-25T17:11:53.096Z,33.70
2018-05-25T17:16:54.535Z,33.20
2018-05-25T17:21:55.920Z,31.90
2018-05-25T17:26:57.476Z,31.70
2018-05-25T17:31:59.020Z,31.30
2018-05-25T17:37:00.524Z,30.20
